createdAt,value
2022-11-10T00:03:29.707Z,26.77
2022-11-10T00:08:49.930Z,25.80
2022-11-10T00:14:28.977Z,25.83
2022-11-10T00:19:49.745Z,26.03
2022-11-10T00:25:10.759Z,30.13
2022-11-10T00:30:30.961Z,28.08
2022-11-10T00:35:51.109Z,30.15
2022-11-10T00:41:11.751Z,28.15
2022-11-10T00:46:32.152Z,27.35
2022-11-10T00:51:52.448Z,30.25
2022-11-10T00:57:12.962Z,25.15
2022-11-10T01:02:43.256Z,27.52
2022-11-10T01:08:03.622Z,25.85
2022-11-10T01:13:23.957Z,24.85
2022-11-10T01:18:44.508Z,25.58
2022-11-10T01:24:04.888Z,27.88
2022-11-10T01:29:25.190Z,24.25
2022-11-10T01:34:45.709Z,24.23
2022-11-10T01:40:06.393Z,24.45
2022-11-10T01:45:36.781Z,25.13
2022-11-10T01:51:01.664Z,22.73
2022-11-10T01:56:24.265Z,25.17
2022-11-10T02:01:48.680Z,25.40
2022-11-10T02:07:11.015Z,22.73
2022-11-10T02:12:38.584Z,24.30
2022-11-10T02:17:59.118Z,22.85
2022-11-10T02:23:31.496Z,22.75
2022-11-10T02:28:53.301Z,22.30
2022-11-10T02:34:13.660Z,23.35
2022-11-10T02:39:33.747Z,22.33
2022-11-10T02:44:54.988Z,23.42
2022-11-10T02:50:15.646Z,22.40
2022-11-10T02:55:52.448Z,23.83
2022-11-10T03:01:17.383Z,23.45
2022-11-10T03:06:43.611Z,24.30
2022-11-10T03:12:06.333Z,21.95
2022-11-10T03:17:26.703Z,21.25
2022-11-10T03:22:47.301Z,21.15
2022-11-10T03:28:07.749Z,19.63
2022-11-10T03:33:28.198Z,17.55
2022-11-10T03:38:48.893Z,18.48
2022-11-10T03:44:09.684Z,19.40
2022-11-10T03:49:30.658Z,18.08
2022-11-10T03:54:51.127Z,18.40
2022-11-10T04:00:14.804Z,18.95
2022-11-10T04:05:53.488Z,18.67
2022-11-10T04:11:33.890Z,19.88
2022-11-10T04:16:54.942Z,20.05
2022-11-10T04:22:35.314Z,18.85
2022-11-10T04:27:56.210Z,20.15
2022-11-10T04:33:16.443Z,20.30
2022-11-10T04:38:37.371Z,20.05
2022-11-10T04:43:59.424Z,22.02
2022-11-10T04:49:19.692Z,21.50
2022-11-10T04:54:40.114Z,20.05
2022-11-10T05:00:00.749Z,20.63
2022-11-10T05:05:21.240Z,20.88
2022-11-10T05:10:41.551Z,19.00
2022-11-10T05:16:03.319Z,19.92
2022-11-10T05:21:23.705Z,20.42
2022-11-10T05:26:43.797Z,21.23
2022-11-10T05:32:04.229Z,20.77
2022-11-10T05:37:24.570Z,20.90
2022-11-10T05:42:52.819Z,18.95
2022-11-10T05:48:13.106Z,17.85
2022-11-10T05:53:35.992Z,18.83
2022-11-10T05:58:56.255Z,20.65
2022-11-10T06:04:16.873Z,21.38
2022-11-10T06:09:38.146Z,21.63
2022-11-10T06:14:58.982Z,24.73
2022-11-10T06:20:20.131Z,23.02
2022-11-10T06:25:41.737Z,23.08
2022-11-10T06:31:01.973Z,22.80
2022-11-10T06:36:22.675Z,22.90
2022-11-10T06:41:43.066Z,20.02
2022-11-10T06:47:03.255Z,21.13
2022-11-10T06:52:26.644Z,18.83
2022-11-10T06:57:46.986Z,18.25
2022-11-10T07:03:10.317Z,20.15
2022-11-10T07:08:30.826Z,20.08
2022-11-10T07:13:51.304Z,19.55
2022-11-10T07:19:11.650Z,20.10
2022-11-10T07:24:32.798Z,20.88
2022-11-10T07:29:53.335Z,21.90
2022-11-10T07:35:13.540Z,21.52
2022-11-10T07:40:33.777Z,20.02
2022-11-10T07:45:54.358Z,18.55
2022-11-10T07:51:15.100Z,19.10
2022-11-10T07:56:35.908Z,19.20
2022-11-10T08:01:56.114Z,17.27
2022-11-10T08:07:16.867Z,18.98
2022-11-10T08:12:37.371Z,17.80
2022-11-10T08:18:05.700Z,18.10
2022-11-10T08:23:26.183Z,18.10
2022-11-10T08:28:46.871Z,15.95
2022-11-10T08:34:07.086Z,17.60
2022-11-10T08:39:38.508Z,15.60
2022-11-10T08:44:59.951Z,17.17
2022-11-10T08:50:20.268Z,16.33
2022-11-10T08:55:41.434Z,13.40
2022-11-10T09:01:02.124Z,14.95
2022-11-10T09:06:22.107Z,13.95
2022-11-10T09:11:42.671Z,12.77
2022-11-10T09:17:03.283Z,14.57
2022-11-10T09:22:24.055Z,14.70
2022-11-10T09:27:44.478Z,14.02
2022-11-10T09:33:04.811Z,13.38
2022-11-10T09:38:25.344Z,12.10
2022-11-10T09:43:51.331Z,12.68
2022-11-10T09:49:24.187Z,13.10
2022-11-10T09:55:02.300Z,11.52
2022-11-10T10:00:23.207Z,12.07
2022-11-10T10:06:02.641Z,14.27
2022-11-10T10:11:36.739Z,10.68
2022-11-10T10:17:38.335Z,12.68
2022-11-10T10:23:46.752Z,13.30
2022-11-10T10:29:18.857Z,13.75
2022-11-10T10:34:39.605Z,12.45
2022-11-10T10:39:59.994Z,11.30
2022-11-10T10:45:29.264Z,12.70
2022-11-10T10:50:50.442Z,13.40
2022-11-10T10:56:19.202Z,13.25
2022-11-10T11:01:40.560Z,11.82
2022-11-10T11:07:19.380Z,11.90
2022-11-10T11:12:39.895Z,9.45
2022-11-10T11:18:05.405Z,11.02
2022-11-10T11:23:56.976Z,11.20
2022-11-10T11:29:42.605Z,10.27
2022-11-10T11:35:41.718Z,10.30
2022-11-10T11:41:15.449Z,11.38
2022-11-10T11:46:48.942Z,10.95
2022-11-10T11:52:21.764Z,9.30
2022-11-10T11:57:53.961Z,8.93
2022-11-10T12:03:32.147Z,8.70
2022-11-10T12:08:56.723Z,8.55
2022-11-10T12:14:46.301Z,7.63
2022-11-10T12:20:45.741Z,8.50
2022-11-10T12:26:12.108Z,7.43
2022-11-10T12:31:35.490Z,10.55
2022-11-10T12:36:57.726Z,6.22
2022-11-10T12:42:23.115Z,5.78
2022-11-10T12:47:46.175Z,3.33
2022-11-10T12:53:48.163Z,2.92
2022-11-10T12:59:20.749Z,3.35
2022-11-10T13:04:41.439Z,3.15
2022-11-10T13:21:52.400Z,2.60
2022-11-10T13:39:16.218Z,3.25
2022-11-10T14:34:47.553Z,3.95
2022-11-10T14:46:31.153Z,4.45
2022-11-10T14:52:02.527Z,4.20
2022-11-10T14:57:37.401Z,4.50
2022-11-10T15:02:58.872Z,4.78
2022-11-10T15:08:19.982Z,5.07
2022-11-10T15:13:41.036Z,4.82
2022-11-10T15:19:22.887Z,6.18
2022-11-10T15:24:45.550Z,5.38
2022-11-10T15:30:23.105Z,5.63
2022-11-10T15:35:43.228Z,5.25
2022-11-10T15:41:10.931Z,5.07
2022-11-10T15:46:31.935Z,5.57
2022-11-10T15:51:57.602Z,6.05
2022-11-10T15:57:19.263Z,6.00
2022-11-10T16:02:40.767Z,5.47
2022-11-10T16:08:00.954Z,5.72
2022-11-10T16:13:28.651Z,6.00
2022-11-10T16:18:49.159Z,5.78
2022-11-10T16:24:09.440Z,6.50
2022-11-10T16:29:31.696Z,6.57
2022-11-10T16:34:52.365Z,7.80
2022-11-10T16:40:17.744Z,6.53
2022-11-10T16:45:42.994Z,6.68
2022-11-10T16:51:10.061Z,6.20
2022-11-10T16:56:34.069Z,5.55
2022-11-10T17:01:55.217Z,5.97
2022-11-10T17:13:15.347Z,6.10
2022-11-10T17:29:55.844Z,6.35
2022-11-10T17:35:26.354Z,6.43
2022-11-10T17:40:47.145Z,6.63
2022-11-10T17:46:07.642Z,5.68
2022-11-10T17:51:28.293Z,5.97
2022-11-10T17:56:48.629Z,7.60
2022-11-10T18:02:11.473Z,10.43
2022-11-10T18:07:35.351Z,14.73
2022-11-10T18:12:55.794Z,10.90
2022-11-10T18:18:17.736Z,13.30
2022-11-10T18:23:39.565Z,19.63
2022-11-10T18:29:07.223Z,16.73
2022-11-10T18:34:28.145Z,9.57
2022-11-10T18:39:49.387Z,9.00
2022-11-10T18:45:11.250Z,12.27
2022-11-10T18:50:31.842Z,9.38
2022-11-10T18:55:58.538Z,9.38
2022-11-10T19:01:20.513Z,9.15
2022-11-10T19:06:44.104Z,11.10
2022-11-10T19:12:07.434Z,11.77
2022-11-10T19:17:30.351Z,11.35
2022-11-10T19:22:51.208Z,11.43
2022-11-10T19:28:11.688Z,12.07
2022-11-10T19:33:37.497Z,12.38
2022-11-10T19:38:57.976Z,16.15
2022-11-10T19:44:19.342Z,18.98
2022-11-10T19:49:40.113Z,16.90
2022-11-10T19:55:00.390Z,15.93
2022-11-10T20:00:21.041Z,17.70
2022-11-10T20:05:43.301Z,18.65
2022-11-10T20:11:10.581Z,13.50
2022-11-10T20:16:41.718Z,11.30
2022-11-10T20:22:01.858Z,9.35
2022-11-10T20:27:21.958Z,9.20
2022-11-10T20:32:50.467Z,9.23
2022-11-10T20:38:11.399Z,9.95
2022-11-10T20:43:36.625Z,10.48
2022-11-10T20:49:01.212Z,7.93
2022-11-10T20:54:27.679Z,7.63
2022-11-10T20:59:48.381Z,7.10
2022-11-10T21:05:13.883Z,6.93
2022-11-10T21:10:34.420Z,8.68
2022-11-10T21:15:57.816Z,9.13
2022-11-10T21:21:22.052Z,10.43
2022-11-10T21:26:55.810Z,10.38
2022-11-10T21:32:16.977Z,10.27
2022-11-10T21:37:38.901Z,9.30
2022-11-10T21:42:59.556Z,9.45
2022-11-10T21:48:19.608Z,10.02
2022-11-10T21:53:41.862Z,9.77
2022-11-10T21:59:02.641Z,9.82
2022-11-10T22:04:23.457Z,9.57
2022-11-10T22:10:02.742Z,10.80
2022-11-10T22:15:42.008Z,9.90
2022-11-10T22:21:04.031Z,11.13
2022-11-10T22:26:24.186Z,10.43
2022-11-10T22:31:44.658Z,10.75
2022-11-10T22:37:04.858Z,10.73
2022-11-10T22:42:43.550Z,11.10
2022-11-10T22:48:22.483Z,11.40
2022-11-10T22:53:43.426Z,8.65
2022-11-10T22:59:03.833Z,10.27
2022-11-10T23:04:23.865Z,9.93
2022-11-10T23:09:45.012Z,10.02
2022-11-10T23:15:05.850Z,10.93
2022-11-10T23:20:26.038Z,7.93
2022-11-10T23:25:55.622Z,6.03
2022-11-10T23:31:19.199Z,5.32
2022-11-10T23:42:26.898Z,6.90
2022-11-10T23:47:47.973Z,7.95
2022-11-10T23:53:08.372Z,6.18
2022-11-10T23:58:29.254Z,9.30
